Airfield :
LOGIN :

Register | Disclaimer

   EN    FR    IT 

 










Legend :    VFR   Marginal VFR   IFR   Intensive IFR   Very Intensive IFR
Visi :
Ceiling :
>= 8 km
>= 3000ft
5 to 8 km
1000 to 3000 ft
1500m to 5 km
500 to 1000 ft
800 to 1500m
200 to 500 ft
< 800m
< 200 ft
Symbols :   Thunderstorms  Fog  Heavy snow  Heavy precipitations  Wind > 20 kt
SIGMETs :     Misc.  Thunderstorms  Icing  Turbulence  Mountain Waves  Volcanic Ashes






- Airport Elevation : 1504 ft
- IATA code : PNA


LEPP - Noain Pamplona

CURRENT METAR :
  • 271230Z VRB01KT 5000 BR FEW010 SCT016 BKN025 13/12 Q1024

EXPIRED METARs :
  • 271200Z VRB01KT 7000 FEW010 SCT018 BKN025 12/12 Q1024
  • 271130Z VRB01KT 7000 FEW007 SCT018 BKN024 12/11 Q1024
  • 271100Z VRB01KT 4500 2000S BR FEW008 SCT017 BKN024 11/11 Q1024
  • 271030Z 00000KT 4500 2000S BR FEW010 SCT017 BKN025 10/10 Q1024
  • 271000Z VRB02KT 4500 2000S BR FEW010 SCT017 BKN026 09/09 Q1024

TAF TAF LEPP
Valid from the 27 at 09:00 until the 28 at 09:00 UTC


270800Z 2709/2809 32006KT 6000 SCT005 BKN020 TX10/2715Z TN05/2807Z
TEMPO 2709/2715 3000 -RADZ BKN010
PROB40
TEMPO 2709/2719 1500 BCFG BKN005
PROB40
TEMPO 2709/2715 0800 FG BKN002
PROB40
TEMPO 2715/2809 3000 BR



MET'MAP, your aeronautical weather chart ! - Copyright ORBIFLY December 2007 - Disclaimer

ORBIFLY MET'MAP TEAM :

Programming & Development : Alexandra Zaïnal
Concept & original design : Baudouin d'Aumeries
Assistance for programming : Marc-Olivier Méhu
Technical & hardware support : Manuel Goepfert

Contact : metmap@orbifly.com




SOURCES & CREDITS :

   NOAA